Time;durP1;ratioP1;P1;durP2;ratioP2;P2;SDS_P1;SDS_P2;PMS_P1;PMS_P2;Temp;Humidity;BMP_temperature;BMP_pressure;BME280_temperature;BME280_humidity;BME280_pressure;Samples;Min_cycle;Max_cycle;Signal;HPM_P1;HPM_P2
2022/06/22 00:01:24;;;;;;;18.45;11.43;;;14.70;99.90;;;;;;5029769;28;20148;-71
2022/06/22 00:03:53;;;;;;;15.75;10.90;;;14.60;99.90;;;;;;5029958;28;20482;-71
2022/06/22 00:06:37;;;;;;;18.23;12.32;;;14.60;99.90;;;;;;5028105;28;20046;-71
2022/06/22 00:09:04;;;;;;;18.00;11.73;;;14.60;99.90;;;;;;5026950;28;20052;-72
2022/06/22 00:11:30;;;;;;;16.40;12.18;;;14.70;99.90;;;;;;5028104;28;20095;-71
2022/06/22 00:13:59;;;;;;;16.83;12.32;;;14.70;99.90;;;;;;5012394;28;20041;-71
2022/06/22 00:16:30;;;;;;;16.90;11.70;;;14.50;99.90;;;;;;5028619;28;20389;-71
2022/06/22 00:18:57;;;;;;;17.65;12.15;;;14.50;99.90;;;;;;5030958;28;20045;-71
2022/06/22 00:21:25;;;;;;;14.60;11.88;;;14.40;99.90;;;;;;5027755;28;20041;-71
2022/06/22 00:23:54;;;;;;;18.50;12.45;;;14.40;99.90;;;;;;5009926;28;20366;-71
2022/06/22 00:26:23;;;;;;;16.58;11.73;;;14.40;99.90;;;;;;5027526;28;20049;-72
2022/06/22 00:28:54;;;;;;;19.83;12.75;;;14.40;99.90;;;;;;5027128;28;20115;-71
2022/06/22 00:31:43;;;;;;;17.85;11.68;;;14.30;99.90;;;;;;5017045;28;20421;-71
2022/06/22 00:34:09;;;;;;;18.52;11.93;;;14.40;99.90;;;;;;5019396;28;20124;-71
2022/06/22 00:36:43;;;;;;;19.13;11.80;;;14.30;99.90;;;;;;5029087;28;20116;-71
2022/06/22 00:39:20;;;;;;;15.23;11.65;;;14.30;99.90;;;;;;5027763;28;20099;-71
2022/06/22 00:42:15;;;;;;;17.70;12.30;;;14.30;99.90;;;;;;5016609;28;20924;-70
2022/06/22 00:45:05;;;;;;;20.85;12.48;;;14.20;99.90;;;;;;5009812;28;20079;-72
2022/06/22 00:47:38;;;;;;;16.15;11.75;;;14.20;99.90;;;;;;4989907;28;20070;-71
2022/06/22 00:50:09;;;;;;;14.50;11.00;;;14.10;99.90;;;;;;5023090;28;20120;-71
2022/06/22 00:52:45;;;;;;;24.55;12.48;;;14.10;99.90;;;;;;5031161;28;20053;-71
2022/06/22 00:55:25;;;;;;;;;;;14.10;99.90;;;;;;5031904;28;20186;-71
2022/06/22 00:58:07;;;;;;;16.67;11.70;;;14.00;99.90;;;;;;5013279;28;20313;-71
2022/06/22 01:00:37;;;;;;;20.30;12.30;;;14.00;99.90;;;;;;5022598;28;20041;-72
2022/06/22 01:03:20;;;;;;;19.67;11.90;;;14.10;99.90;;;;;;5031311;28;20450;-72
2022/06/22 01:05:51;;;;;;;19.23;12.70;;;13.90;99.90;;;;;;5031773;28;20393;-72
2022/06/22 01:08:31;;;;;;;15.20;11.75;;;13.90;99.90;;;;;;5012735;28;20136;-72
2022/06/22 01:14:18;;;;;;;16.38;12.23;;;13.90;99.90;;;;;;5030506;28;20053;-72
2022/06/22 01:16:49;;;;;;;20.27;11.98;;;13.80;99.90;;;;;;5010858;28;20053;-72
2022/06/22 01:19:25;;;;;;;17.52;11.80;;;13.90;99.90;;;;;;5010942;28;20132;-72
2022/06/22 01:22:21;;;;;;;17.83;10.98;;;13.80;99.90;;;;;;5010820;28;20045;-72
2022/06/22 01:24:49;;;;;;;19.10;12.13;;;13.80;99.90;;;;;;5011349;28;20057;-72
2022/06/22 01:27:24;;;;;;;18.17;11.65;;;13.70;99.90;;;;;;5027737;28;20045;-72
2022/06/22 01:29:56;;;;;;;17.67;11.63;;;13.80;99.90;;;;;;5031343;28;20417;-71
2022/06/22 01:32:31;;;;;;;18.48;12.10;;;13.70;99.90;;;;;;5010946;28;20052;-72
2022/06/22 01:35:03;;;;;;;15.20;11.00;;;13.70;99.90;;;;;;5011281;28;20372;-72
2022/06/22 01:37:32;;;;;;;16.95;11.10;;;13.70;99.90;;;;;;5010722;28;20614;-72
2022/06/22 01:40:24;;;;;;;16.63;10.40;;;13.70;99.90;;;;;;5012945;28;20088;-72
2022/06/22 01:42:55;;;;;;;16.40;11.00;;;13.70;99.90;;;;;;5011165;28;20053;-72
2022/06/22 01:45:39;;;;;;;19.70;11.90;;;13.70;99.90;;;;;;5030824;28;20411;-72
2022/06/22 01:48:23;;;;;;;16.52;10.88;;;13.90;99.90;;;;;;5029704;28;20057;-72
2022/06/22 01:51:05;;;;;;;18.42;12.23;;;13.70;99.90;;;;;;5031169;28;20057;-71
2022/06/22 01:54:18;;;;;;;18.73;12.18;;;14.60;99.90;;;;;;5029705;28;20132;-72
2022/06/22 01:56:59;;;;;;;18.38;12.07;;;13.70;99.90;;;;;;5008919;28;20053;-72
2022/06/22 02:00:08;;;;;;;18.10;11.50;;;13.70;99.90;;;;;;4992622;28;20112;-72
2022/06/22 02:02:47;;;;;;;19.70;12.10;;;13.70;99.90;;;;;;5009400;28;20050;-72
2022/06/22 02:05:32;;;;;;;16.00;11.75;;;13.70;99.90;;;;;;5027906;28;20145;-72
2022/06/22 02:08:09;;;;;;;20.05;12.02;;;13.70;99.90;;;;;;5029356;28;20045;-72
2022/06/22 02:10:42;;;;;;;17.83;11.85;;;13.90;99.90;;;;;;5029973;28;20528;-72
2022/06/22 02:13:28;;;;;;;16.48;12.27;;;14.70;99.90;;;;;;5007009;28;20041;-72
2022/06/22 02:16:21;;;;;;;16.88;11.48;;;13.70;99.90;;;;;;5012254;28;20068;-72
2022/06/22 02:18:58;;;;;;;20.10;11.88;;;13.60;99.90;;;;;;4993820;28;20394;-72
2022/06/22 02:21:52;;;;;;;17.25;10.95;;;13.60;99.90;;;;;;5027797;28;20077;-72
2022/06/22 02:24:30;;;;;;;19.48;12.10;;;13.50;99.90;;;;;;5030297;28;20045;-72
2022/06/22 02:27:07;;;;;;;17.90;12.07;;;13.60;99.90;;;;;;5028811;28;20045;-72
2022/06/22 02:29:59;;;;;;;16.35;11.68;;;13.50;99.90;;;;;;5030177;28;20074;-72
2022/06/22 02:32:36;;;;;;;17.30;11.60;;;13.50;99.90;;;;;;5011980;28;20089;-72
2022/06/22 02:35:04;;;;;;;15.68;11.38;;;13.50;99.90;;;;;;5012151;28;20491;-71
2022/06/22 02:37:34;;;;;;;15.93;11.55;;;13.40;99.90;;;;;;5011941;28;20478;-72
2022/06/22 02:40:04;;;;;;;19.67;11.32;;;13.40;99.90;;;;;;5007661;28;20182;-72
2022/06/22 02:45:17;;;;;;;16.10;10.82;;;13.30;99.90;;;;;;5029625;28;20057;-71
2022/06/22 02:47:51;;;;;;;17.90;11.70;;;13.30;99.90;;;;;;5029341;28;20045;-71
2022/06/22 02:50:27;;;;;;;17.85;11.55;;;13.30;99.90;;;;;;5029454;28;20048;-71
2022/06/22 02:52:59;;;;;;;15.70;11.57;;;13.30;99.90;;;;;;5011895;28;20081;-71
2022/06/22 02:55:32;;;;;;;15.68;11.38;;;13.30;99.90;;;;;;5011632;28;20450;-72
2022/06/22 02:58:00;;;;;;;18.67;11.73;;;13.70;99.90;;;;;;5026752;28;20088;-71
2022/06/22 03:00:38;;;;;;;15.32;11.60;;;13.30;99.90;;;;;;5028388;28;20456;-71
2022/06/22 03:03:11;;;;;;;16.00;11.07;;;13.20;99.90;;;;;;5028045;28;20041;-71
2022/06/22 03:05:39;;;;;;;15.60;10.98;;;13.20;99.90;;;;;;5029554;28;20401;-71
2022/06/22 03:08:06;;;;;;;16.10;10.80;;;13.50;99.90;;;;;;5028267;28;20183;-71
2022/06/22 03:10:54;;;;;;;21.20;11.50;;;13.30;99.90;;;;;;5027494;28;20121;-71
2022/06/22 03:13:31;;;;;;;17.63;11.25;;;13.30;99.90;;;;;;5027927;28;20041;-71
2022/06/22 03:15:58;;;;;;;19.02;11.02;;;13.30;99.90;;;;;;5010634;28;20128;-71
2022/06/22 03:18:29;;;;;;;19.52;11.43;;;13.20;99.90;;;;;;4993608;28;20045;-72
2022/06/22 03:21:07;;;;;;;18.75;10.38;;;13.20;99.90;;;;;;5011369;28;20042;-71
2022/06/22 03:24:06;;;;;;;15.88;10.88;;;13.20;99.90;;;;;;5028660;28;20390;-71
2022/06/22 03:26:49;;;;;;;15.70;9.80;;;13.20;99.90;;;;;;5026640;28;20136;-71
2022/06/22 03:29:24;;;;;;;12.80;9.60;;;13.20;99.90;;;;;;5012922;28;20109;-71
2022/06/22 03:32:06;;;;;;;15.40;10.23;;;13.20;99.90;;;;;;5019308;28;20379;-71
2022/06/22 03:34:40;;;;;;;14.82;9.68;;;13.20;99.90;;;;;;5007860;28;20525;-70
2022/06/22 03:37:13;;;;;;;15.85;10.05;;;13.20;99.90;;;;;;4991007;28;20045;-71
2022/06/22 03:39:48;;;;;;;12.65;9.77;;;13.30;99.90;;;;;;5020813;28;20072;-71
2022/06/22 03:42:29;;;;;;;12.00;9.88;;;13.10;99.90;;;;;;5027118;28;20041;-70
2022/06/22 03:45:00;;;;;;;15.60;10.45;;;13.10;99.90;;;;;;5028907;28;20148;-72
2022/06/22 03:47:35;;;;;;;16.67;11.13;;;13.10;99.90;;;;;;5026329;28;20037;-72
2022/06/22 03:50:15;;;;;;;14.40;10.18;;;13.20;99.90;;;;;;5028403;28;20545;-72
2022/06/22 03:52:50;;;;;;;14.73;10.70;;;13.00;99.90;;;;;;5027490;28;20055;-71
2022/06/22 03:55:21;;;;;;;14.25;10.18;;;13.10;99.90;;;;;;5029982;28;20048;-72
2022/06/22 03:57:52;;;;;;;14.07;10.25;;;13.50;99.90;;;;;;5008785;28;20044;-72
2022/06/22 04:00:19;;;;;;;14.18;10.13;;;13.00;99.90;;;;;;5027115;28;20448;-71
2022/06/22 04:02:45;;;;;;;13.02;9.75;;;13.00;99.90;;;;;;5027761;28;20096;-72
2022/06/22 04:05:19;;;;;;;14.32;9.63;;;13.60;99.90;;;;;;5028087;28;20072;-72
2022/06/22 04:07:46;;;;;;;12.43;9.48;;;13.10;99.90;;;;;;5027542;28;20049;-71
2022/06/22 04:10:37;;;;;;;10.38;8.48;;;13.40;99.90;;;;;;5028082;28;20056;-71
2022/06/22 04:13:07;;;;;;;11.95;9.02;;;13.10;99.90;;;;;;5017128;28;20136;-71
2022/06/22 04:15:48;;;;;;;13.20;9.48;;;13.10;99.90;;;;;;5027470;28;20060;-71
2022/06/22 04:18:34;;;;;;;12.48;9.32;;;13.10;99.90;;;;;;5009965;28;20087;-70
2022/06/22 04:21:06;;;;;;;13.15;9.38;;;13.10;99.90;;;;;;5027416;28;20045;-71
2022/06/22 04:23:49;;;;;;;11.68;8.98;;;13.10;99.90;;;;;;5030591;28;20046;-71
2022/06/22 04:26:19;;;;;;;14.40;10.05;;;13.10;99.90;;;;;;5021972;28;20053;-70
2022/06/22 04:28:48;;;;;;;15.88;11.18;;;13.20;99.90;;;;;;5031331;28;20088;-71
2022/06/22 04:31:26;;;;;;;16.35;10.85;;;13.20;99.90;;;;;;5005311;28;20402;-70
2022/06/22 04:33:59;;;;;;;14.90;10.75;;;13.20;99.90;;;;;;5014909;28;20046;-71
2022/06/22 04:36:43;;;;;;;13.63;10.07;;;13.20;99.90;;;;;;5018780;28;20750;-71
2022/06/22 04:39:20;;;;;;;15.15;10.63;;;13.20;99.90;;;;;;5032834;28;20049;-71
2022/06/22 04:41:47;;;;;;;13.70;10.30;;;13.30;99.90;;;;;;5031707;28;20164;-71
2022/06/22 04:44:17;;;;;;;18.08;11.48;;;13.40;99.90;;;;;;5032564;28;20050;-70
2022/06/22 04:46:46;;;;;;;16.83;11.45;;;13.40;99.90;;;;;;4995884;28;20041;-71
2022/06/22 04:49:26;;;;;;;15.05;10.63;;;13.40;99.90;;;;;;5010225;28;20362;-71
2022/06/22 04:51:58;;;;;;;16.88;10.52;;;13.50;99.90;;;;;;5031847;28;20081;-71
2022/06/22 04:54:30;;;;;;;14.75;10.88;;;13.50;99.90;;;;;;5031636;28;20049;-72
2022/06/22 04:56:58;;;;;;;16.77;11.18;;;13.60;99.90;;;;;;5029492;28;20371;-72
2022/06/22 04:59:25;;;;;;;15.13;10.50;;;14.00;99.90;;;;;;5031836;28;20455;-71
2022/06/22 05:02:04;;;;;;;14.38;9.98;;;13.70;99.90;;;;;;5031188;28;20049;-71
2022/06/22 05:04:43;;;;;;;16.05;10.88;;;13.70;99.90;;;;;;5030771;28;20530;-71
2022/06/22 05:07:32;;;;;;;16.88;10.15;;;13.70;99.90;;;;;;5030646;28;20122;-72
2022/06/22 05:10:03;;;;;;;17.95;10.88;;;14.10;99.90;;;;;;5026530;28;20056;-71
2022/06/22 05:12:50;;;;;;;13.30;9.85;;;13.80;99.90;;;;;;5029536;28;20041;-72
2022/06/22 05:15:24;;;;;;;14.00;9.63;;;13.90;99.90;;;;;;5031357;28;20120;-72
2022/06/22 05:17:50;;;;;;;13.27;9.40;;;14.00;99.90;;;;;;5030092;28;20049;-72
2022/06/22 05:20:25;;;;;;;14.18;9.13;;;14.00;99.90;;;;;;5030879;28;20049;-72
2022/06/22 05:22:54;;;;;;;16.00;10.18;;;14.00;99.90;;;;;;5013208;28;20077;-72
2022/06/22 05:25:21;;;;;;;17.15;9.25;;;14.10;99.90;;;;;;5031012;28;20398;-72
2022/06/22 05:28:10;;;;;;;14.60;9.25;;;14.20;99.90;;;;;;5029276;28;20098;-72
2022/06/22 05:30:44;;;;;;;15.65;9.98;;;14.20;99.90;;;;;;5030205;28;20116;-72
2022/06/22 05:33:16;;;;;;;13.50;8.73;;;14.30;99.90;;;;;;5029485;28;20049;-72
2022/06/22 05:35:49;;;;;;;14.48;8.90;;;14.30;99.90;;;;;;5030297;28;20416;-71
2022/06/22 05:38:19;;;;;;;12.20;8.20;;;14.50;99.90;;;;;;5029781;28;20041;-72
2022/06/22 05:40:46;;;;;;;13.10;8.40;;;14.40;99.90;;;;;;5030101;28;20429;-72
2022/06/22 05:43:13;;;;;;;12.35;8.85;;;14.50;99.90;;;;;;5011586;28;20119;-72
2022/06/22 05:45:45;;;;;;;14.82;8.70;;;15.50;99.90;;;;;;5029598;28;20107;-72
2022/06/22 05:48:17;;;;;;;14.02;8.40;;;14.50;99.90;;;;;;5031920;28;20135;-72
2022/06/22 05:51:01;;;;;;;16.00;8.25;;;14.60;99.90;;;;;;5012325;28;20053;-72
2022/06/22 05:53:49;;;;;;;12.38;8.38;;;14.60;99.90;;;;;;5011443;28;20042;-72
2022/06/22 05:56:42;;;;;;;14.60;8.32;;;14.70;99.90;;;;;;5029790;28;20073;-72
2022/06/22 05:59:14;;;;;;;13.30;9.05;;;14.70;99.90;;;;;;5003191;28;20061;-72
2022/06/22 06:01:57;;;;;;;13.90;8.48;;;14.80;99.90;;;;;;5011658;28;20057;-72
2022/06/22 06:04:39;;;;;;;11.88;7.97;;;14.80;99.90;;;;;;5029781;28;20409;-72
2022/06/22 06:07:19;;;;;;;11.45;7.05;;;14.90;99.90;;;;;;5028490;28;20053;-72
2022/06/22 06:09:46;;;;;;;18.95;7.25;;;15.00;99.90;;;;;;5030054;28;20391;-71
2022/06/22 06:12:29;;;;;;;11.07;5.75;;;15.00;99.90;;;;;;5027826;28;20439;-72
2022/06/22 06:14:54;;;;;;;13.13;6.40;;;15.00;99.90;;;;;;5029054;28;20187;-70
2022/06/22 06:17:31;;;;;;;13.65;6.20;;;15.10;99.90;;;;;;5024788;28;20112;-70
2022/06/22 06:19:58;;;;;;;10.02;6.07;;;15.20;99.90;;;;;;5027819;28;21518;-70
2022/06/22 06:22:25;;;;;;;10.45;5.50;;;15.30;99.90;;;;;;5028276;28;20211;-72
2022/06/22 06:28:53;;;;;;;8.90;4.63;;;15.40;99.90;;;;;;5024504;28;20503;-69
2022/06/22 06:31:25;;;;;;;10.32;5.07;;;15.50;99.90;;;;;;5003939;28;20057;-69
2022/06/22 06:33:52;;;;;;;12.60;5.00;;;15.50;99.90;;;;;;5028457;28;20072;-69
2022/06/22 06:36:25;;;;;;;9.48;5.30;;;15.60;99.90;;;;;;5028260;28;20474;-69
2022/06/22 06:38:58;;;;;;;11.90;5.50;;;15.70;99.90;;;;;;5010360;28;20089;-69
2022/06/22 06:41:43;;;;;;;12.38;4.57;;;15.80;99.90;;;;;;5027326;28;20045;-69
2022/06/22 06:44:20;;;;;;;6.93;4.30;;;15.80;99.90;;;;;;5011783;28;20136;-69
2022/06/22 06:46:53;;;;;;;12.68;4.20;;;15.80;99.90;;;;;;5030887;28;20056;-69
2022/06/22 06:49:39;;;;;;;9.90;4.10;;;15.90;99.90;;;;;;5028299;28;20422;-68
2022/06/22 06:52:31;;;;;;;8.50;3.90;;;16.00;99.90;;;;;;5028338;28;20056;-70
2022/06/22 06:55:00;;;;;;;8.90;3.90;;;16.10;99.90;;;;;;5028191;28;20037;-68
2022/06/22 06:57:28;;;;;;;10.40;4.30;;;16.20;99.90;;;;;;5027065;28;20037;-69
2022/06/22 06:59:57;;;;;;;11.60;5.00;;;16.20;99.90;;;;;;5028026;28;20053;-69
2022/06/22 07:02:33;;;;;;;9.38;4.90;;;16.20;99.90;;;;;;5027302;28;20048;-68
2022/06/22 07:05:01;;;;;;;10.60;5.05;;;16.30;99.90;;;;;;5027895;28;20041;-69
2022/06/22 07:07:52;;;;;;;11.07;5.43;;;16.40;99.90;;;;;;5027731;28;20127;-69
2022/06/22 07:10:44;;;;;;;10.60;5.05;;;16.40;99.90;;;;;;4984172;28;20057;-69
2022/06/22 07:13:39;;;;;;;10.18;4.63;;;16.50;99.90;;;;;;5006270;28;20054;-70
2022/06/22 07:16:14;;;;;;;9.40;4.40;;;16.50;99.90;;;;;;4995275;28;20137;-69
2022/06/22 07:18:44;;;;;;;10.65;4.65;;;16.60;99.90;;;;;;5017300;28;20104;-69
2022/06/22 07:21:14;;;;;;;10.57;4.85;;;16.70;99.90;;;;;;5018249;28;20033;-69
2022/06/22 07:24:13;;;;;;;12.40;5.30;;;16.70;99.90;;;;;;5020217;28;20045;-69
2022/06/22 07:27:19;;;;;;;13.55;4.57;;;16.90;99.90;;;;;;4994451;28;20050;-69
2022/06/22 07:30:01;;;;;;;8.80;4.70;;;17.00;99.90;;;;;;5019925;28;20124;-70
2022/06/22 07:32:41;;;;;;;10.05;5.10;;;17.00;99.90;;;;;;4999514;28;20079;-70
2022/06/22 07:35:30;;;;;;;9.77;4.15;;;17.10;99.90;;;;;;5013140;28;20080;-70
2022/06/22 07:38:02;;;;;;;8.75;4.13;;;17.20;99.90;;;;;;5008522;28;20042;-70
2022/06/22 07:40:29;;;;;;;7.07;3.58;;;17.30;99.90;;;;;;5008225;28;20586;-71
2022/06/22 07:42:57;;;;;;;11.02;4.25;;;17.30;99.90;;;;;;5006417;28;20045;-70
2022/06/22 07:45:24;;;;;;;9.90;3.75;;;17.30;99.90;;;;;;5008138;28;20129;-70
2022/06/22 07:47:55;;;;;;;9.38;3.65;;;17.30;99.90;;;;;;4987160;28;20058;-70
2022/06/22 07:50:29;;;;;;;8.20;3.67;;;17.50;99.90;;;;;;4988298;28;20050;-68
2022/06/22 07:53:16;;;;;;;9.80;3.63;;;17.50;99.90;;;;;;4988921;28;20089;-69
2022/06/22 07:55:52;;;;;;;8.52;3.20;;;17.60;99.90;;;;;;4988815;28;20034;-69
2022/06/22 07:58:20;;;;;;;11.48;4.07;;;17.70;99.90;;;;;;4985959;28;20054;-69
2022/06/22 08:00:51;;;;;;;9.38;3.65;;;17.70;99.90;;;;;;4971792;28;20045;-69
2022/06/22 08:03:49;;;;;;;9.45;4.05;;;17.80;99.90;;;;;;4973071;28;20101;-70
2022/06/22 08:06:27;;;;;;;8.85;3.70;;;17.90;99.90;;;;;;4990971;28;20431;-70
2022/06/22 08:08:58;;;;;;;9.73;4.07;;;17.80;99.90;;;;;;4991202;28;20055;-69
2022/06/22 08:11:45;;;;;;;8.68;3.90;;;18.00;99.90;;;;;;4988537;28;20206;-69
2022/06/22 08:14:35;;;;;;;10.00;4.03;;;18.10;99.90;;;;;;5007968;28;20141;-69
2022/06/22 08:17:06;;;;;;;8.20;3.90;;;18.20;99.90;;;;;;4989900;28;20117;-70
2022/06/22 08:19:32;;;;;;;9.70;3.65;;;18.30;99.90;;;;;;5007989;28;20052;-69
2022/06/22 08:22:04;;;;;;;8.77;4.22;;;18.40;99.90;;;;;;4990452;28;20049;-69
2022/06/22 08:24:32;;;;;;;11.32;4.60;;;18.40;99.90;;;;;;4990386;28;20054;-70
2022/06/22 08:26:59;;;;;;;8.52;4.63;;;18.60;99.90;;;;;;5006219;28;20401;-69
2022/06/22 08:29:27;;;;;;;10.18;4.93;;;18.60;99.90;;;;;;5007839;28;20046;-70
2022/06/22 08:32:01;;;;;;;11.88;4.60;;;18.80;99.90;;;;;;4969687;28;20136;-69
2022/06/22 08:34:34;;;;;;;10.10;4.80;;;18.80;99.90;;;;;;4989464;28;20065;-70
2022/06/22 08:37:07;;;;;;;7.72;4.28;;;18.90;99.90;;;;;;4999451;28;20269;-78
2022/06/22 08:39:48;;;;;;;8.88;4.70;;;19.00;99.90;;;;;;5007171;28;20045;-78
2022/06/22 08:42:42;;;;;;;10.18;5.28;;;19.00;99.90;;;;;;5006049;28;20042;-77
2022/06/22 08:45:36;;;;;;;10.90;4.70;;;19.10;99.90;;;;;;4983041;28;20364;-74
2022/06/22 08:48:54;;;;;;;9.70;4.53;;;19.20;99.90;;;;;;5001912;28;20064;-76
2022/06/22 08:51:49;;;;;;;9.88;5.30;;;19.40;99.90;;;;;;4995386;28;20081;-82
2022/06/22 08:54:42;;;;;;;14.25;5.57;;;19.50;99.90;;;;;;5027309;28;20402;-77
2022/06/22 08:57:53;;;;;;;10.27;4.55;;;19.70;99.90;;;;;;5004918;28;20046;-78
2022/06/22 09:00:29;;;;;;;9.80;4.88;;;19.90;99.90;;;;;;5007595;28;20049;-80
2022/06/22 09:03:30;;;;;;;11.25;4.57;;;20.00;99.90;;;;;;4989615;28;20042;-79
2022/06/22 09:06:25;;;;;;;12.40;5.63;;;20.10;99.90;;;;;;4990687;28;20053;-79
2022/06/22 09:08:54;;;;;;;8.38;4.88;;;20.20;99.90;;;;;;5006842;28;20451;-80
2022/06/22 09:11:31;;;;;;;9.45;4.40;;;20.30;99.90;;;;;;5010881;28;20125;-80
2022/06/22 09:14:20;;;;;;;16.05;4.78;;;20.50;99.90;;;;;;5011587;28;20119;-80
2022/06/22 09:17:28;;;;;;;8.60;4.47;;;20.70;99.90;;;;;;5011703;28;20105;-80
2022/06/22 09:20:00;;;;;;;9.68;4.95;;;20.90;99.90;;;;;;5011455;28;20046;-79
2022/06/22 09:22:55;;;;;;;9.98;4.90;;;21.10;99.90;;;;;;5010342;28;20050;-80
2022/06/22 09:25:31;;;;;;;12.97;5.00;;;21.10;99.90;;;;;;5010454;28;20046;-80
2022/06/22 09:28:15;;;;;;;12.02;4.63;;;21.30;99.90;;;;;;5012670;28;20392;-79
2022/06/22 09:30:52;;;;;;;11.10;4.72;;;21.40;99.90;;;;;;4993751;28;20045;-79
2022/06/22 09:33:36;;;;;;;9.73;4.43;;;21.50;99.90;;;;;;5010699;28;20050;-79
2022/06/22 09:36:27;;;;;;;10.93;4.20;;;21.70;99.90;;;;;;5010667;28;20048;-79
2022/06/22 09:39:25;;;;;;;11.57;5.25;;;21.70;99.90;;;;;;5010844;28;20411;-79
2022/06/22 09:42:15;;;;;;;10.45;4.43;;;21.80;99.90;;;;;;5009192;28;20141;-78
2022/06/22 09:44:52;;;;;;;8.00;3.60;;;21.90;99.90;;;;;;5010461;28;20490;-78
2022/06/22 09:47:54;;;;;;;8.45;4.35;;;22.10;99.90;;;;;;5010218;28;20057;-78
2022/06/22 09:51:02;;;;;;;7.93;3.40;;;22.20;99.90;;;;;;5010427;28;20530;-79
2022/06/22 09:53:52;;;;;;;9.05;3.53;;;22.50;99.90;;;;;;4956398;28;20514;-79
2022/06/22 09:56:30;;;;;;;7.90;3.60;;;22.80;99.90;;;;;;5010181;28;20057;-77
2022/06/22 09:59:08;;;;;;;9.20;3.63;;;23.00;99.90;;;;;;5011803;28;20394;-80
2022/06/22 10:02:00;;;;;;;10.55;3.83;;;23.30;99.90;;;;;;5009910;28;20050;-80
2022/06/22 10:05:03;;;;;;;11.48;3.72;;;23.50;99.90;;;;;;5009988;28;20046;-83
2022/06/22 10:07:52;;;;;;;8.40;3.97;;;24.00;99.90;;;;;;5010049;28;20049;-82
2022/06/22 10:10:38;;;;;;;11.40;3.80;;;24.80;99.30;;;;;;5009530;28;20056;-81
2022/06/22 10:13:40;;;;;;;6.75;3.15;;;26.10;98.70;;;;;;4966424;28;20058;-80
2022/06/22 10:16:28;;;;;;;7.80;3.15;;;28.60;96.90;;;;;;5009726;28;20050;-80
2022/06/22 10:19:12;;;;;;;7.82;3.55;;;31.80;93.10;;;;;;4991810;28;20038;-80
2022/06/22 10:22:10;;;;;;;10.73;3.60;;;35.00;89.00;;;;;;5008231;28;20050;-79
2022/06/22 10:24:54;;;;;;;9.13;3.70;;;37.20;85.40;;;;;;5009060;28;20056;-79
2022/06/22 10:27:38;;;;;;;5.78;2.85;;;39.70;80.60;;;;;;5007824;28;20182;-81
2022/06/22 10:30:23;;;;;;;7.72;3.53;;;41.10;76.40;;;;;;5009694;28;20042;-81
2022/06/22 10:33:08;;;;;;;8.20;2.85;;;41.90;72.90;;;;;;5009184;28;20053;-83
2022/06/22 10:35:40;;;;;;;;;;;43.00;71.20;;;;;;5010906;28;20041;-82
2022/06/22 10:38:15;;;;;;;11.07;4.32;;;43.70;67.50;;;;;;5009800;28;19921;-82
2022/06/22 10:47:15;;;;;;;7.25;3.22;;;44.50;61.80;;;;;;5008483;28;20045;-84
2022/06/22 10:50:18;;;;;;;8.52;3.35;;;43.20;62.90;;;;;;5009221;28;20113;-83
2022/06/22 10:53:02;;;;;;;9.10;3.50;;;43.10;62.50;;;;;;5023598;28;20081;-82
2022/06/22 10:56:00;;;;;;;6.10;2.95;;;43.90;61.20;;;;;;5011593;28;20056;-83
2022/06/22 10:58:53;;;;;;;8.60;3.40;;;44.60;62.30;;;;;;5027980;28;20439;-82
2022/06/22 11:01:21;;;;;;;8.60;3.05;;;44.60;60.00;;;;;;5010321;28;20398;-82
2022/06/22 11:03:59;;;;;;;6.13;2.80;;;45.30;60.90;;;;;;5029048;28;20037;-82
2022/06/22 11:06:36;;;;;;;5.80;2.40;;;45.00;59.70;;;;;;5027697;28;20053;-82
2022/06/22 11:09:23;;;;;;;6.75;2.75;;;45.10;58.90;;;;;;5027676;28;20678;-82
2022/06/22 11:12:00;;;;;;;6.78;3.10;;;44.70;56.50;;;;;;5029695;28;20041;-83
2022/06/22 11:14:50;;;;;;;7.72;2.67;;;43.30;57.60;;;;;;5030753;28;20389;-83
2022/06/22 11:17:41;;;;;;;5.85;2.80;;;41.70;56.50;;;;;;5027891;28;20045;-82
2022/06/22 11:20:45;;;;;;;7.28;2.80;;;40.30;56.70;;;;;;5029291;28;20564;-83
2022/06/22 11:23:38;;;;;;;7.32;3.10;;;38.30;58.40;;;;;;5029458;28;20123;-82
2022/06/22 11:33:15;;;;;;;6.15;2.88;;;33.50;61.40;;;;;;5030402;28;20567;-83
2022/06/22 11:36:01;;;;;;;6.57;3.00;;;32.80;63.50;;;;;;4997618;28;20410;-82
2022/06/22 11:38:27;;;;;;;6.88;3.20;;;32.50;63.80;;;;;;5005440;28;20451;-71
2022/06/22 11:41:00;;;;;;;8.13;3.00;;;32.20;63.60;;;;;;5005182;28;20149;-72
2022/06/22 11:43:42;;;;;;;6.75;3.28;;;32.40;64.00;;;;;;5003383;28;20041;-72
2022/06/22 11:46:30;;;;;;;8.00;3.05;;;33.60;64.20;;;;;;5005379;28;20071;-71
2022/06/22 11:49:09;;;;;;;5.03;2.70;;;35.10;63.50;;;;;;5016832;28;20132;-71
2022/06/22 11:52:06;;;;;;;9.20;3.10;;;37.30;61.90;;;;;;5024042;28;20120;-71
2022/06/22 11:55:12;;;;;;;7.93;3.30;;;38.80;60.80;;;;;;5024733;28;20052;-71
2022/06/22 11:58:07;;;;;;;8.15;3.03;;;37.70;59.70;;;;;;5022509;28;20045;-71
2022/06/22 12:00:41;;;;;;;10.13;3.40;;;36.90;61.40;;;;;;5005184;28;20045;-71
2022/06/22 12:03:22;;;;;;;8.45;3.92;;;38.00;61.10;;;;;;5023940;28;20292;-72
2022/06/22 12:06:01;;;;;;;8.93;3.30;;;37.50;60.80;;;;;;5024842;28;20060;-72
2022/06/22 12:08:54;;;;;;;8.82;3.20;;;36.60;61.10;;;;;;5024092;28;20057;-72
2022/06/22 12:11:43;;;;;;;8.00;3.70;;;34.90;61.80;;;;;;5024026;28;20689;-72
2022/06/22 12:17:37;;;;;;;7.22;3.30;;;33.30;63.40;;;;;;5023173;28;20061;-72
2022/06/22 12:20:31;;;;;;;7.45;2.90;;;32.50;64.60;;;;;;5007814;28;20049;-71
2022/06/22 12:23:08;;;;;;;9.60;2.83;;;31.80;65.10;;;;;;5027551;28;20406;-72
2022/06/22 12:25:55;;;;;;;7.22;2.83;;;31.30;66.20;;;;;;5009075;28;20394;-72
2022/06/22 12:28:34;;;;;;;7.45;3.10;;;30.90;66.80;;;;;;5025892;28;20418;-71
2022/06/22 12:31:12;;;;;;;9.25;3.05;;;30.50;67.20;;;;;;5017874;28;20519;-71
2022/06/22 12:33:46;;;;;;;5.68;2.75;;;30.00;68.10;;;;;;5007305;28;20077;-70
2022/06/22 12:36:26;;;;;;;7.13;2.90;;;29.70;68.40;;;;;;5007743;28;20160;-71
2022/06/22 12:39:10;;;;;;;8.98;3.30;;;29.60;68.50;;;;;;4989894;28;20086;-71
2022/06/22 12:41:42;;;;;;;9.23;3.05;;;29.30;69.10;;;;;;5018193;28;20049;-72
2022/06/22 12:44:29;;;;;;;5.60;2.67;;;29.00;70.40;;;;;;5030396;28;20217;-72
2022/06/22 12:47:14;;;;;;;8.82;4.10;;;28.80;70.30;;;;;;5030492;28;20093;-72
2022/06/22 12:49:51;;;;;;;11.18;3.60;;;28.40;70.20;;;;;;4996721;28;20069;-72
2022/06/22 12:52:31;;;;;;;7.50;3.08;;;28.00;71.00;;;;;;5010644;28;20077;-72
2022/06/22 12:55:03;;;;;;;8.77;2.90;;;27.80;72.10;;;;;;5010928;28;20415;-72
2022/06/22 12:57:50;;;;;;;6.57;3.30;;;27.80;71.90;;;;;;5008891;28;20044;-72
2022/06/22 13:00:18;;;;;;;6.35;2.63;;;27.60;72.00;;;;;;5010373;28;20558;-70
2022/06/22 13:02:45;;;;;;;9.25;3.03;;;27.50;72.10;;;;;;5010501;28;20501;-71
2022/06/22 13:05:17;;;;;;;7.13;3.05;;;27.50;72.40;;;;;;5012253;28;20057;-71
2022/06/22 13:08:05;;;;;;;7.70;3.63;;;27.50;72.70;;;;;;5010148;28;20064;-71
2022/06/22 13:10:35;;;;;;;8.38;3.67;;;27.30;72.70;;;;;;4993772;28;20200;-71
2022/06/22 13:13:17;;;;;;;9.55;3.13;;;27.00;73.30;;;;;;4971792;28;20410;-71
2022/06/22 13:15:52;;;;;;;8.70;3.10;;;26.90;74.70;;;;;;4991341;28;20053;-70
2022/06/22 13:18:35;;;;;;;7.47;3.85;;;26.90;75.50;;;;;;4990734;28;20487;-71
2022/06/22 13:21:28;;;;;;;7.25;2.88;;;26.90;74.50;;;;;;5006119;28;20525;-71
2022/06/22 13:24:23;;;;;;;8.32;3.20;;;26.70;75.10;;;;;;4997778;28;20394;-70
2022/06/22 13:27:11;;;;;;;7.43;3.85;;;26.70;75.40;;;;;;4989409;28;20054;-71
2022/06/22 13:30:15;;;;;;;8.60;4.18;;;26.70;75.60;;;;;;4990800;28;20125;-71
2022/06/22 13:32:48;;;;;;;6.00;2.83;;;26.60;75.90;;;;;;4998172;28;20053;-70
2022/06/22 13:35:26;;;;;;;6.03;2.55;;;26.70;75.90;;;;;;5009496;28;20053;-70
2022/06/22 13:38:14;;;;;;;9.35;4.20;;;26.70;76.20;;;;;;5009806;28;20180;-70
2022/06/22 13:41:19;;;;;;;10.82;4.80;;;26.70;77.30;;;;;;5009739;28;20502;-71
2022/06/22 13:44:16;;;;;;;10.25;4.20;;;26.60;80.10;;;;;;5009121;28;20110;-70
2022/06/22 13:46:59;;;;;;;7.95;3.72;;;26.70;80.30;;;;;;5009305;28;20092;-72
2022/06/22 13:50:26;;;;;;;10.40;4.20;;;26.80;80.40;;;;;;5023681;28;20096;-71
2022/06/22 13:52:57;;;;;;;10.25;4.15;;;26.90;80.70;;;;;;4986180;28;20399;-72
2022/06/22 13:55:23;;;;;;;9.13;5.00;;;26.80;80.30;;;;;;5028394;28;20510;-71
2022/06/22 13:58:09;;;;;;;8.30;3.70;;;26.80;81.40;;;;;;5026935;28;20155;-71
2022/06/22 14:01:03;;;;;;;8.90;4.30;;;26.70;81.30;;;;;;5028781;28;20057;-70
2022/06/22 14:03:43;;;;;;;9.73;4.32;;;26.60;82.40;;;;;;5027191;28;20069;-70
2022/06/22 14:06:11;;;;;;;9.75;4.30;;;26.50;82.50;;;;;;5011478;28;20085;-72
2022/06/22 14:08:49;;;;;;;9.60;4.40;;;26.30;83.80;;;;;;5012449;28;20129;-72